Wind Surf — C6IO6 — position and weather

sailwx.info

Track history (hours):
 
Tides and Currents Weather Stations Pressure Air Temp Water Temp Dewpoint Dewpoint Depression Visibility Wind Speed Wind Dir Waves Ship Positions

Wind Surf

Operator: Holland America Line

Last reported at 2019-Sep-19 23:04 UTC. Time now 2019-Sep-21 10:56 UTC.
Position N 41°51' E 003°17'.

Length 187 m; draft 5.4 m.

Type: Passenger vessel. MMSI: 309242000.

Date/timePositionNaut miles runAvg speedWind from/ knotsBaromVisibWave heightAir tempDewpointWater temp
2019-Sep-19 23:04N 41°51' E 003°17'46 8.6
2019-Sep-19 17:44N 41°24' E 002°27'2 8.4
2019-Sep-19 17:30N 41°23' E 002°25'4 8.4
2019-Sep-19 17:00N 41°21' E 002°20'4 8.6
2019-Sep-19 16:30N 41°18' E 002°15'3 6.8
2019-Sep-19 16:00N 41°17' E 002°11'3 6.8
2019-Sep-19 15:30N 41°20' E 002°10'2 3.9
2019-Sep-19 15:00N 41°22' E 002°11'0 0.0
2019-Sep-19 14:24N 41°22' E 002°11'0 0.0
2019-Sep-19 14:00N 41°22' E 002°11'0 0.0
2019-Sep-19 13:30N 41°22' E 002°11'0 0.0
2019-Sep-19 13:00N 41°22' E 002°11'0 0.0
2019-Sep-19 12:30N 41°22' E 002°11'0 0.0
2019-Sep-19 12:00N 41°22' E 002°11'0 0.0
2019-Sep-19 11:27N 41°22' E 002°11'0 0.0
2019-Sep-19 11:00N 41°22' E 002°11'0 0.0
2019-Sep-19 10:30N 41°22' E 002°11'0 0.0
2019-Sep-19 09:48N 41°22' E 002°11'0 0.0
2019-Sep-19 09:06N 41°22' E 002°11'0 0.0
2019-Sep-19 08:57N 41°22' E 002°11'0 0.0
2019-Sep-19 08:27N 41°22' E 002°11'0 0.0
2019-Sep-19 08:00N 41°22' E 002°11'0 0.0
2019-Sep-19 07:27N 41°22' E 002°11'0 0.0
2019-Sep-19 07:00N 41°22' E 002°11'0 0.0
2019-Sep-19 06:29N 41°22' E 002°11'0 0.0
2019-Sep-19 06:00N 41°22' E 002°11'0 0.0
2019-Sep-19 05:30N 41°22' E 002°11'0 0.0
2019-Sep-19 05:00N 41°22' E 002°11'0 0.4
2019-Sep-19 04:30N 41°22' E 002°11'3 6.9
2019-Sep-19 04:00N 41°18' E 002°11'510.0
2019-Sep-19 03:30N 41°13' E 002°11'510.2
2019-Sep-19 03:00N 41°08' E 002°11'5 9.7
2019-Sep-19 02:30N 41°03' E 002°11'6 9.7
2019-Sep-19 01:53N 40°57' E 002°12'25 9.8
2019-Sep-18 23:23N 40°33' E 002°13'5 9.9
2019-Sep-18 22:51N 40°27' E 002°13'2910.5
2019-Sep-18 20:05N 39°58' E 002°15'410.9
2019-Sep-18 19:45N 39°54' E 002°15'610.7
2019-Sep-18 19:09N 39°48' E 002°15'410.4
2019-Sep-18 18:46N 39°44' E 002°15'310.3
2019-Sep-18 18:30N 39°41' E 002°15'15 9.5
2019-Sep-18 16:56N 39°28' E 002°25'4 9.8
2019-Sep-18 16:30N 39°26' E 002°30'4 8.9
2019-Sep-18 16:00N 39°28' E 002°35'5 9.9
2019-Sep-18 15:30N 39°32' E 002°39'1 2.4
2019-Sep-18 15:00N 39°33' E 002°38'0 0.0
2019-Sep-18 14:30N 39°33' E 002°38'0 0.0
2019-Sep-18 14:00N 39°33' E 002°38'0 0.0
2019-Sep-18 13:30N 39°33' E 002°38'0 0.0
2019-Sep-18 13:00N 39°33' E 002°38'0 0.0
2019-Sep-18 12:30N 39°33' E 002°38'0 0.0
2019-Sep-18 12:00N 39°33' E 002°38'0 0.0
2019-Sep-18 11:30N 39°33' E 002°38'0 0.0
2019-Sep-18 11:00N 39°33' E 002°38'0 0.0
2019-Sep-18 10:30N 39°33' E 002°38'0 0.0
2019-Sep-18 10:00N 39°33' E 002°38'0 0.0
2019-Sep-18 09:27N 39°33' E 002°38'0 0.0
2019-Sep-18 09:00N 39°33' E 002°38'0 0.0
2019-Sep-18 08:30N 39°33' E 002°38'0 0.0
2019-Sep-18 08:00N 39°33' E 002°38'0 0.0
2019-Sep-18 07:30N 39°33' E 002°38'0 0.0
2019-Sep-18 07:00N 39°33' E 002°38'0 0.0
2019-Sep-18 06:31N 39°33' E 002°38'1 2.4
2019-Sep-18 06:00N 39°32' E 002°38'4 8.9
2019-Sep-18 05:31N 39°29' E 002°35'5 9.4
2019-Sep-18 05:00N 39°25' E 002°31'5 9.4
2019-Sep-18 04:30N 39°22' E 002°27'510.1
2019-Sep-18 04:00N 39°18' E 002°22'510.4
2019-Sep-18 03:30N 39°14' E 002°18'610.3
2019-Sep-18 02:53N 39°09' E 002°12'410.3
2019-Sep-18 02:30N 39°06' E 002°09'30 9.7
2019-Sep-17 23:23N 38°44' E 001°43'3310.4
2019-Sep-17 20:12N 38°23' E 001°10'197 7.7
2019-Sep-16 18:27N 36°46' W 002°26'4 8.8
2019-Sep-16 18:00N 36°49' W 002°28'1 0.9
2019-Sep-16 17:20N 36°50' W 002°28'0 0.0
2019-Sep-16 16:56N 36°50' W 002°28'0 0.0
2019-Sep-16 16:29N 36°50' W 002°28'0 0.0
2019-Sep-16 15:59N 36°50' W 002°28'0 0.0
2019-Sep-16 15:29N 36°50' W 002°28'0 0.0
2019-Sep-16 14:59N 36°50' W 002°28'0 0.0
2019-Sep-16 14:29N 36°50' W 002°28'0 0.0
2019-Sep-16 13:56N 36°50' W 002°28'0 0.0
2019-Sep-16 13:26N 36°50' W 002°28'0 0.0
2019-Sep-16 12:59N 36°50' W 002°28'0 0.0
2019-Sep-16 12:29N 36°50' W 002°28'0 0.0
2019-Sep-16 11:56N 36°50' W 002°28'0 0.0
2019-Sep-16 11:29N 36°50' W 002°28'0 0.0
2019-Sep-16 10:59N 36°50' W 002°28'0 0.0
2019-Sep-16 10:29N 36°50' W 002°28'0 0.0
2019-Sep-16 09:59N 36°50' W 002°28'0 0.0
2019-Sep-16 09:29N 36°50' W 002°28'0 0.0
2019-Sep-16 08:56N 36°50' W 002°28'0 0.0
2019-Sep-16 08:26N 36°50' W 002°28'0 0.0
2019-Sep-16 07:56N 36°50' W 002°28'0 0.0
2019-Sep-16 07:26N 36°50' W 002°28'0 0.0
2019-Sep-16 06:59N 36°50' W 002°28'0 0.0
2019-Sep-16 06:29N 36°50' W 002°28'0 0.0
2019-Sep-16 05:56N 36°50' W 002°28'0 0.0
2019-Sep-16 05:26N 36°50' W 002°28'0 0.0
2019-Sep-16 04:59N 36°50' W 002°28'0 0.0
2019-Sep-16 04:30N 36°50' W 002°28'2 4.2
2019-Sep-16 04:00N 36°48' W 002°28'5 9.7
2019-Sep-16 03:30N 36°44' W 002°32'  
2019-Sep-12 05:00N 37°22' W 009°32'4 8.6
2019-Sep-12 04:30N 37°26' W 009°32'4 8.5
2019-Sep-12 03:59N 37°31' W 009°31'4 8.5
2019-Sep-12 03:30N 37°35' W 009°31'4 8.8
2019-Sep-12 03:00N 37°39' W 009°30'4 8.7
2019-Sep-12 02:30N 37°43' W 009°30'4 8.7
2019-Sep-12 02:00N 37°48' W 009°29'4 8.4
2019-Sep-12 01:30N 37°52' W 009°28'4 8.4
2019-Sep-12 01:00N 37°56' W 009°28'4 8.1
2019-Sep-12 00:30N 38°00' W 009°27'4 8.1
2019-Sep-12 00:00N 38°04' W 009°27'4 8.2
2019-Sep-11 23:30N 38°08' W 009°27'4 8.1
2019-Sep-11 23:00N 38°12' W 009°26'4 8.2
2019-Sep-11 22:30N 38°16' W 009°26'4 8.3
2019-Sep-11 22:00N 38°20' W 009°25'4 8.3
2019-Sep-11 21:30N 38°25' W 009°25'4 8.3
2019-Sep-11 21:00N 38°29' W 009°24'4 8.7
2019-Sep-11 20:30N 38°33' W 009°23'4 8.7
2019-Sep-11 20:00N 38°37' W 009°22'510.7
2019-Sep-11 19:30N 38°41' W 009°17'510.8
2019-Sep-11 19:00N 38°41' W 009°10'3 4.9
2019-Sep-11 18:29N 38°43' W 009°07'0 0.0
2019-Sep-11 17:59N 38°43' W 009°07'0 0.0
2019-Sep-11 17:29N 38°43' W 009°07'0 0.0
2019-Sep-11 16:59N 38°43' W 009°07'0 0.0
2019-Sep-11 16:29N 38°43' W 009°07'0 0.0
2019-Sep-11 15:59N 38°43' W 009°07'0 0.0
2019-Sep-11 15:29N 38°43' W 009°07'0 0.0
2019-Sep-11 14:59N 38°43' W 009°07'0 0.0
2019-Sep-11 14:29N 38°43' W 009°07'0 0.0
2019-Sep-11 13:59N 38°43' W 009°07'0 0.0
2019-Sep-11 13:29N 38°43' W 009°07'0 0.0
2019-Sep-11 12:59N 38°43' W 009°07'0 0.0
2019-Sep-11 12:29N 38°43' W 009°07'0 0.0
2019-Sep-11 11:59N 38°43' W 009°07'0 0.0
2019-Sep-11 11:29N 38°43' W 009°07'0 0.0
2019-Sep-11 10:59N 38°43' W 009°07'0 0.0
2019-Sep-11 10:29N 38°43' W 009°07'0 0.0
2019-Sep-11 09:59N 38°43' W 009°07'0 0.0
2019-Sep-11 09:29N 38°43' W 009°07'0 0.0
2019-Sep-11 08:59N 38°43' W 009°07'0 0.0
2019-Sep-11 08:29N 38°43' W 009°07'0 0.0
2019-Sep-11 07:59N 38°43' W 009°07'0 0.0
2019-Sep-11 07:30N 38°43' W 009°07'1 1.3
2019-Sep-11 07:00N 38°42' W 009°08'4 8.9
2019-Sep-11 06:30N 38°41' W 009°13'4 7.0
2019-Sep-11 06:00N 38°41' W 009°18'4 7.8
2019-Sep-11 05:31N 38°38' W 009°21'4 7.3
2019-Sep-11 05:00N 38°35' W 009°23'4 8.0
2019-Sep-11 04:30N 38°31' W 009°23'4 8.0
2019-Sep-11 04:01N 38°27' W 009°23'4 8.8
2019-Sep-11 03:30N 38°22' W 009°23'4 8.4
2019-Sep-11 03:00N 38°18' W 009°23'4 8.3
2019-Sep-11 02:30N 38°14' W 009°23'4 8.1
2019-Sep-11 02:00N 38°10' W 009°22'4 8.1
2019-Sep-11 01:30N 38°06' W 009°22'4 8.2
2019-Sep-11 01:01N 38°02' W 009°21'5 9.4
2019-Sep-11 00:30N 37°58' W 009°17'5 9.4
2019-Sep-11 00:01N 37°55' W 009°13'4 8.9
2019-Sep-10 23:31N 37°51' W 009°12'4 9.0
2019-Sep-10 23:01N 37°46' W 009°12'5 9.3
2019-Sep-10 22:30N 37°41' W 009°12'4 8.9
2019-Sep-10 22:00N 37°37' W 009°12'6 8.5
2019-Sep-10 21:19N 37°31' W 009°12'52 5.7
2019-Sep-10 12:14N 36°43' W 008°48'33 8.2
2019-Sep-10 08:14N 36°40' W 008°07'81 8.9
2019-Sep-09 23:05N 36°34' W 006°27'  
Track history (hours):
 
Tides and Currents Weather Stations Pressure Air Temp Water Temp Dewpoint Dewpoint Depression Visibility Wind Speed Wind Dir Waves Ship Positions

Wind Surf

Operator: Holland America Line

Last reported at 2019-Sep-19 23:04 UTC. Time now 2019-Sep-21 10:56 UTC.
Position N 41°51' E 003°17'.

Length 187 m; draft 5.4 m.

Type: Passenger vessel. MMSI: 309242000.

Date/timePositionNaut miles runAvg speedWind from/ knotsBaromVisibWave heightAir tempDewpointWater temp
2019-Sep-19 23:04N 41°51' E 003°17'46 8.6
2019-Sep-19 17:44N 41°24' E 002°27'2 8.4
2019-Sep-19 17:30N 41°23' E 002°25'4 8.4
2019-Sep-19 17:00N 41°21' E 002°20'4 8.6
2019-Sep-19 16:30N 41°18' E 002°15'3 6.8
2019-Sep-19 16:00N 41°17' E 002°11'3 6.8
2019-Sep-19 15:30N 41°20' E 002°10'2 3.9
2019-Sep-19 15:00N 41°22' E 002°11'0 0.0
2019-Sep-19 14:24N 41°22' E 002°11'0 0.0
2019-Sep-19 14:00N 41°22' E 002°11'0 0.0
2019-Sep-19 13:30N 41°22' E 002°11'0 0.0
2019-Sep-19 13:00N 41°22' E 002°11'0 0.0
2019-Sep-19 12:30N 41°22' E 002°11'0 0.0
2019-Sep-19 12:00N 41°22' E 002°11'0 0.0
2019-Sep-19 11:27N 41°22' E 002°11'0 0.0
2019-Sep-19 11:00N 41°22' E 002°11'0 0.0
2019-Sep-19 10:30N 41°22' E 002°11'0 0.0
2019-Sep-19 09:48N 41°22' E 002°11'0 0.0
2019-Sep-19 09:06N 41°22' E 002°11'0 0.0
2019-Sep-19 08:57N 41°22' E 002°11'0 0.0
2019-Sep-19 08:27N 41°22' E 002°11'0 0.0
2019-Sep-19 08:00N 41°22' E 002°11'0 0.0
2019-Sep-19 07:27N 41°22' E 002°11'0 0.0
2019-Sep-19 07:00N 41°22' E 002°11'0 0.0
2019-Sep-19 06:29N 41°22' E 002°11'0 0.0
2019-Sep-19 06:00N 41°22' E 002°11'0 0.0
2019-Sep-19 05:30N 41°22' E 002°11'0 0.0
2019-Sep-19 05:00N 41°22' E 002°11'0 0.4
2019-Sep-19 04:30N 41°22' E 002°11'3 6.9
2019-Sep-19 04:00N 41°18' E 002°11'510.0
2019-Sep-19 03:30N 41°13' E 002°11'510.2
2019-Sep-19 03:00N 41°08' E 002°11'5 9.7
2019-Sep-19 02:30N 41°03' E 002°11'6 9.7
2019-Sep-19 01:53N 40°57' E 002°12'25 9.8
2019-Sep-18 23:23N 40°33' E 002°13'5 9.9
2019-Sep-18 22:51N 40°27' E 002°13'2910.5
2019-Sep-18 20:05N 39°58' E 002°15'410.9
2019-Sep-18 19:45N 39°54' E 002°15'610.7
2019-Sep-18 19:09N 39°48' E 002°15'410.4
2019-Sep-18 18:46N 39°44' E 002°15'310.3
2019-Sep-18 18:30N 39°41' E 002°15'15 9.5
2019-Sep-18 16:56N 39°28' E 002°25'4 9.8
2019-Sep-18 16:30N 39°26' E 002°30'4 8.9
2019-Sep-18 16:00N 39°28' E 002°35'5 9.9
2019-Sep-18 15:30N 39°32' E 002°39'1 2.4
2019-Sep-18 15:00N 39°33' E 002°38'0 0.0
2019-Sep-18 14:30N 39°33' E 002°38'0 0.0
2019-Sep-18 14:00N 39°33' E 002°38'0 0.0
2019-Sep-18 13:30N 39°33' E 002°38'0 0.0
2019-Sep-18 13:00N 39°33' E 002°38'0 0.0
2019-Sep-18 12:30N 39°33' E 002°38'0 0.0
2019-Sep-18 12:00N 39°33' E 002°38'0 0.0
2019-Sep-18 11:30N 39°33' E 002°38'0 0.0
2019-Sep-18 11:00N 39°33' E 002°38'0 0.0
2019-Sep-18 10:30N 39°33' E 002°38'0 0.0
2019-Sep-18 10:00N 39°33' E 002°38'0 0.0
2019-Sep-18 09:27N 39°33' E 002°38'0 0.0
2019-Sep-18 09:00N 39°33' E 002°38'0 0.0
2019-Sep-18 08:30N 39°33' E 002°38'0 0.0
2019-Sep-18 08:00N 39°33' E 002°38'0 0.0
2019-Sep-18 07:30N 39°33' E 002°38'0 0.0
2019-Sep-18 07:00N 39°33' E 002°38'0 0.0
2019-Sep-18 06:31N 39°33' E 002°38'1 2.4
2019-Sep-18 06:00N 39°32' E 002°38'4 8.9
2019-Sep-18 05:31N 39°29' E 002°35'5 9.4
2019-Sep-18 05:00N 39°25' E 002°31'5 9.4
2019-Sep-18 04:30N 39°22' E 002°27'510.1
2019-Sep-18 04:00N 39°18' E 002°22'510.4
2019-Sep-18 03:30N 39°14' E 002°18'610.3
2019-Sep-18 02:53N 39°09' E 002°12'410.3
2019-Sep-18 02:30N 39°06' E 002°09'30 9.7
2019-Sep-17 23:23N 38°44' E 001°43'3310.4
2019-Sep-17 20:12N 38°23' E 001°10'197 7.7
2019-Sep-16 18:27N 36°46' W 002°26'4 8.8
2019-Sep-16 18:00N 36°49' W 002°28'1 0.9
2019-Sep-16 17:20N 36°50' W 002°28'0 0.0
2019-Sep-16 16:56N 36°50' W 002°28'0 0.0
2019-Sep-16 16:29N 36°50' W 002°28'0 0.0
2019-Sep-16 15:59N 36°50' W 002°28'0 0.0
2019-Sep-16 15:29N 36°50' W 002°28'0 0.0
2019-Sep-16 14:59N 36°50' W 002°28'0 0.0
2019-Sep-16 14:29N 36°50' W 002°28'0 0.0
2019-Sep-16 13:56N 36°50' W 002°28'0 0.0
2019-Sep-16 13:26N 36°50' W 002°28'0 0.0
2019-Sep-16 12:59N 36°50' W 002°28'0 0.0
2019-Sep-16 12:29N 36°50' W 002°28'0 0.0
2019-Sep-16 11:56N 36°50' W 002°28'0 0.0
2019-Sep-16 11:29N 36°50' W 002°28'0 0.0
2019-Sep-16 10:59N 36°50' W 002°28'0 0.0
2019-Sep-16 10:29N 36°50' W 002°28'0 0.0
2019-Sep-16 09:59N 36°50' W 002°28'0 0.0
2019-Sep-16 09:29N 36°50' W 002°28'0 0.0
2019-Sep-16 08:56N 36°50' W 002°28'0 0.0
2019-Sep-16 08:26N 36°50' W 002°28'0 0.0
2019-Sep-16 07:56N 36°50' W 002°28'0 0.0
2019-Sep-16 07:26N 36°50' W 002°28'0 0.0
2019-Sep-16 06:59N 36°50' W 002°28'0 0.0
2019-Sep-16 06:29N 36°50' W 002°28'0 0.0
2019-Sep-16 05:56N 36°50' W 002°28'0 0.0
2019-Sep-16 05:26N 36°50' W 002°28'0 0.0
2019-Sep-16 04:59N 36°50' W 002°28'0 0.0
2019-Sep-16 04:30N 36°50' W 002°28'2 4.2
2019-Sep-16 04:00N 36°48' W 002°28'5 9.7
2019-Sep-16 03:30N 36°44' W 002°32'  
2019-Sep-12 05:00N 37°22' W 009°32'4 8.6
2019-Sep-12 04:30N 37°26' W 009°32'4 8.5
2019-Sep-12 03:59N 37°31' W 009°31'4 8.5
2019-Sep-12 03:30N 37°35' W 009°31'4 8.8
2019-Sep-12 03:00N 37°39' W 009°30'4 8.7
2019-Sep-12 02:30N 37°43' W 009°30'4 8.7
2019-Sep-12 02:00N 37°48' W 009°29'4 8.4
2019-Sep-12 01:30N 37°52' W 009°28'4 8.4
2019-Sep-12 01:00N 37°56' W 009°28'4 8.1
2019-Sep-12 00:30N 38°00' W 009°27'4 8.1
2019-Sep-12 00:00N 38°04' W 009°27'4 8.2
2019-Sep-11 23:30N 38°08' W 009°27'4 8.1
2019-Sep-11 23:00N 38°12' W 009°26'4 8.2
2019-Sep-11 22:30N 38°16' W 009°26'4 8.3
2019-Sep-11 22:00N 38°20' W 009°25'4 8.3
2019-Sep-11 21:30N 38°25' W 009°25'4 8.3
2019-Sep-11 21:00N 38°29' W 009°24'4 8.7
2019-Sep-11 20:30N 38°33' W 009°23'4 8.7
2019-Sep-11 20:00N 38°37' W 009°22'510.7
2019-Sep-11 19:30N 38°41' W 009°17'510.8
2019-Sep-11 19:00N 38°41' W 009°10'3 4.9
2019-Sep-11 18:29N 38°43' W 009°07'0 0.0
2019-Sep-11 17:59N 38°43' W 009°07'0 0.0
2019-Sep-11 17:29N 38°43' W 009°07'0 0.0
2019-Sep-11 16:59N 38°43' W 009°07'0 0.0
2019-Sep-11 16:29N 38°43' W 009°07'0 0.0
2019-Sep-11 15:59N 38°43' W 009°07'0 0.0
2019-Sep-11 15:29N 38°43' W 009°07'0 0.0
2019-Sep-11 14:59N 38°43' W 009°07'0 0.0
2019-Sep-11 14:29N 38°43' W 009°07'0 0.0
2019-Sep-11 13:59N 38°43' W 009°07'0 0.0
2019-Sep-11 13:29N 38°43' W 009°07'0 0.0
2019-Sep-11 12:59N 38°43' W 009°07'0 0.0
2019-Sep-11 12:29N 38°43' W 009°07'0 0.0
2019-Sep-11 11:59N 38°43' W 009°07'0 0.0
2019-Sep-11 11:29N 38°43' W 009°07'0 0.0
2019-Sep-11 10:59N 38°43' W 009°07'0 0.0
2019-Sep-11 10:29N 38°43' W 009°07'0 0.0
2019-Sep-11 09:59N 38°43' W 009°07'0 0.0
2019-Sep-11 09:29N 38°43' W 009°07'0 0.0
2019-Sep-11 08:59N 38°43' W 009°07'0 0.0
2019-Sep-11 08:29N 38°43' W 009°07'0 0.0
2019-Sep-11 07:59N 38°43' W 009°07'0 0.0
2019-Sep-11 07:30N 38°43' W 009°07'1 1.3
2019-Sep-11 07:00N 38°42' W 009°08'4 8.9
2019-Sep-11 06:30N 38°41' W 009°13'4 7.0
2019-Sep-11 06:00N 38°41' W 009°18'4 7.8
2019-Sep-11 05:31N 38°38' W 009°21'4 7.3
2019-Sep-11 05:00N 38°35' W 009°23'4 8.0
2019-Sep-11 04:30N 38°31' W 009°23'4 8.0
2019-Sep-11 04:01N 38°27' W 009°23'4 8.8
2019-Sep-11 03:30N 38°22' W 009°23'4 8.4
2019-Sep-11 03:00N 38°18' W 009°23'4 8.3
2019-Sep-11 02:30N 38°14' W 009°23'4 8.1
2019-Sep-11 02:00N 38°10' W 009°22'4 8.1
2019-Sep-11 01:30N 38°06' W 009°22'4 8.2
2019-Sep-11 01:01N 38°02' W 009°21'5 9.4
2019-Sep-11 00:30N 37°58' W 009°17'5 9.4
2019-Sep-11 00:01N 37°55' W 009°13'4 8.9
2019-Sep-10 23:31N 37°51' W 009°12'4 9.0
2019-Sep-10 23:01N 37°46' W 009°12'5 9.3
2019-Sep-10 22:30N 37°41' W 009°12'4 8.9
2019-Sep-10 22:00N 37°37' W 009°12'6 8.5
2019-Sep-10 21:19N 37°31' W 009°12'52 5.7
2019-Sep-10 12:14N 36°43' W 008°48'33 8.2
2019-Sep-10 08:14N 36°40' W 008°07'81 8.9
2019-Sep-09 23:05N 36°34' W 006°27'  

Dump ship's entire track history